Nearby METAR Reports

CWGD - Goderich (autob), Ontario, Canada
Distance from station: SW 47km
Updated: 12/17/2018 4:00am

 Wind from NW
Wind: NW 22 km/h, Gust: 31 km/h
Temperature: 3°C
Wind Chill: -2°C
Dew Point: 1°C
Humidity: 87%
2018/12/17 09:00 CWGD 170900Z AUTO 31012G17KT 03/01 RMK AO1 PK WND 32019/0838 SLP104 T00260011 56007
CWLS - Mount Forest(Mar, Ontario, Canada
Distance from station: ESE 53km
Updated: 12/17/2018 4:00am

 Wind from WNW
Wind: WNW 11 km/h
Temperature: 0°C
Wind Chill: -4°C
Dew Point: 0°C
Humidity: 100%
2018/12/17 09:00 CWLS 170900Z AUTO 29006KT M00/M00 RMK AO1 SOG 04 7006 SLP095 T10021001
 
CYVV - Wiarton Air, Ontario, Canada
Distance from station: NNE 75km
Updated: 12/17/2018 4:00am
Mostly cloudy
Mostly cloudy
 Wind from WNW
Wind: WNW 17 km/h
Temperature: 3°C
Wind Chill: -1°C
Dew Point: -2°C
Humidity: 70%
Barometer: 1008.1 hPa
Clouds: Mostly cloudy
Visibility: 24 km
Cloud details: Few Clouds 366 m
Mostly cloudy 914 m
2018/12/17 09:00 CYVV 170900Z 29009KT 270V350 15SM FEW012 BKN030 03/M02 A2977 RMK SF1SC6 SLP089
CZEL - Elora Rcs, Ontario, Canada
Distance from station: ESE 93km
Updated: 12/17/2018 4:00am

 Wind from WNW
Wind: WNW 13 km/h
Temperature: 0°C
Wind Chill: -4°C
Dew Point: 0°C
Humidity: 100%
2018/12/17 09:00 CZEL 170900Z AUTO 29007KT 00/M00 RMK AO1 SLP098 T00001003 56011
 
CWCO - Collingwood (aut, Ontario, Canada
Distance from station: ENE 104km
Updated: 12/17/2018 4:00am

 Wind from W
Wind: W 9 km/h
Temperature: 2°C
Wind Chill: -1°C
Dew Point: 0°C
Humidity: 87%
2018/12/17 09:00 CWCO 170900Z AUTO 26005KT 02/M00 RMK AO1 SLP083 T00231002 57012
CYKF - Waterloo Well, Ontario, Canada
Distance from station: SE 107km
Updated: 12/17/2018 4:00am
Mist, Overcast
Mist, Overcast
 Wind from WNW
Wind: WNW 19 km/h, Gust: 30 km/h
Temperature: 1°C
Wind Chill: -4°C
Dew Point: 0°C
Humidity: 93%
Barometer: 1008.5 hPa
Summary: Mist
Clouds: Overcast
Visibility: 10 km
Cloud details: Overcast 305 m
2018/12/17 09:00 CYKF 170900Z AUTO 29010G16KT 6SM BR OVC010 01/M00 A2978 RMK SLP098
 
KP58 - Port Hope, Michigan, USA
Distance from station: W 114km
Updated: 12/17/2018 3:51am

 Wind from WNW
Wind: WNW 13 km/h
Temperature: 0°C
Wind Chill: -4°C
Dew Point: -1°C
Humidity: 93%
Barometer: 1011.5 hPa
2018/12/17 08:51 KP58 170851Z AUTO 29007KT 00/M01 A2987 RMK AO1 SLP124 T00001011 53012
CYBN - Borden, Ontario, Canada
Distance from station: E 118km
Updated: 12/17/2018 4:00am
Clear
Clear
 Wind from WSW
Wind: WSW 7 km/h
Temperature: -1°C
Wind Chill: -4°C
Dew Point: -2°C
Humidity: 93%
Barometer: 1007.8 hPa
Clouds: Clear
Visibility: 14 km
2018/12/17 09:00 CYBN 170900Z AUTO 24004KT 150V270 9SM CLR M01/M02 A2976 RMK SLP087
 
CYXU - London Airport, Ontario, Canada
Distance from station: S 123km
Updated: 12/17/2018 4:48am
Mist, Overcast
Mist, Overcast
 Wind from W
Wind: W 11 km/h
Temperature: 0°C
Wind Chill: -4°C
Dew Point: -1°C
Humidity: 93%
Barometer: 1009.8 hPa
Summary: Mist
Clouds: Overcast
Visibility: 10 km
Cloud details: Overcast 488 m
2018/12/17 09:48 CYXU 170948Z 28006KT 6SM BR OVC016 00/M01 A2982 RMK SC8 SLP110
CXET - Egbert Cs, Ontario, Canada
Distance from station: E 128km
Updated: 12/17/2018 4:00am

 Wind from SW
Wind: SW 7 km/h
Temperature: 0°C
Wind Chill: -3°C
Dew Point: -2°C
Humidity: 87%
2018/12/17 09:00 CXET 170900Z AUTO 23004KT M00/M02 RMK AO1 SOG 04 8009 SLP081 T10021017
 
CWMZ - Western Isl (map, Ontario, Canada
Distance from station: NE 129km
Updated: 12/17/2018 4:00am

 Wind from NW
Wind: NW 48 km/h
Temperature: 4°C
Wind Chill: -3°C
Dew Point: -2°C
Humidity: 65%
2018/12/17 09:00 CWMZ 170900Z AUTO 31026KT 04/M02 RMK AO1 PK WND 31030/0854 SLP072 T00391016 57007
KBAX - Bad Axe, Michigan, USA
Distance from station: WSW 133km
Updated: 12/17/2018 4:36am
Clear
Clear
 Wind from W
Wind: W 11 km/h
Temperature: 0°C
Wind Chill: -4°C
Dew Point: -1°C
Humidity: 93%
Barometer: 1012.2 hPa
Clouds: Clear
Visibility: 16 km
2018/12/17 09:36 KBAX 170936Z AUTO 28006KT 10SM CLR 00/M01 A2989 RMK AO2 T10021015
 
CWWX - Cove Island (map, Ontario, Canada
Distance from station: NNW 137km
Updated: 12/17/2018 4:00am

 Wind from NNW
Wind: NNW 41 km/h
Temperature: 3°C
Wind Chill: -4°C
Dew Point: -1°C
Humidity: 75%
2018/12/17 09:00 CWWX 170900Z AUTO 34022KT 03/M01 RMK AO1 PK WND 34030/0803 SLP084 T00311011 56001
CYZR - Sarnia Airport, Ontario, Canada
Distance from station: SSW 144km
Updated: 12/17/2018 4:00am
Clear
Clear
 Wind from WNW
Wind: WNW 24 km/h
Temperature: 1°C
Wind Chill: -4°C
Dew Point: -1°C
Humidity: 87%
Barometer: 1011.5 hPa
Clouds: Clear
Visibility: 14 km
2018/12/17 09:00 CYZR 170900Z AUTO 29013KT 9SM CLR 01/M01 A2987 RMK SLP121
 
CXHM - Hamilton Rbg Cs, Ontario, Canada
Distance from station: SE 150km
Updated: 12/17/2018 4:00am

 Wind from W
Wind: W 9 km/h
Temperature: 2°C
Wind Chill: -1°C
Dew Point: 1°C
Humidity: 93%
2018/12/17 09:00 CXHM 170900Z AUTO 27005KT 02/01 RMK AO1 SLP096 T00200006 55005
CYYZ - Toronto/Pearson, Ontario, Canada
Distance from station: ESE 150km
Updated: 12/17/2018 4:00am
Overcast
Overcast
 Wind from NW
Wind: NW 17 km/h
Temperature: 2°C
Wind Chill: -2°C
Dew Point: 0°C
Humidity: 87%
Barometer: 1008.8 hPa
Clouds: Overcast
Visibility: 18 km
Cloud details: Overcast 457 m
2018/12/17 09:00 CYYZ 170900Z 31009KT 11SM OVC015 02/M00 A2979 RMK ST8 SLP095
 
CXBI - Barrie-Oro, Ontario, Canada
Distance from station: ENE 151km
Updated: 12/17/2018 4:00am

 Wind from W
Wind: W 9 km/h
Temperature: -1°C
Wind Chill: -4°C
Dew Point: -1°C
Humidity: 100%
2018/12/17 09:00 CXBI 170900Z AUTO 27005KT M01/M01 RMK AO1 SOG 08 8012 SLP083 T10071011
CXDI - Delhi Cs (aut), Ontario, Canada
Distance from station: SSE 154km
Updated: 12/17/2018 4:00am

 Wind from W
Wind: W 9 km/h
Temperature: 1°C
Wind Chill: -2°C
Dew Point: -1°C
Humidity: 87%
2018/12/17 09:00 CXDI 170900Z AUTO 28005KT 01/M01 RMK AO1 SOG 01 6007 SLP102 T00061009
 
CWWB - Burlington Piers, Ontario, Canada
Distance from station: SE 157km
Updated: 12/17/2018 4:00am

 Wind from WSW
Wind: WSW 11 km/h
Temperature: 2°C
Wind Chill: -1°C
Dew Point: 0°C
Humidity: 87%
2018/12/17 09:00 CWWB 170900Z AUTO 25006KT 02/M00 RMK AO1 PK WND 25017/0818 SLP097 T00231004 55003
CYHM - Hamilton Airport, Ontario, Canada
Distance from station: SE 157km
Updated: 12/17/2018 4:00am
Mist, Overcast
Mist, Overcast
 Wind from W
Wind: W 20 km/h, Gust: 30 km/h
Temperature: 1°C
Wind Chill: -4°C
Dew Point: 0°C
Humidity: 93%
Barometer: 1009.1 hPa
Summary: Mist
Clouds: Overcast
Visibility: 10 km
Cloud details: Overcast 244 m
2018/12/17 09:00 CYHM 170900Z 28011G16KT 6SM BR OVC008 01/M00 A2980 RMK SC8 SLP103